sensor_id;sensor_type;location;lat;lon;timestamp;P1;durP1;ratioP1;P2;durP2;ratioP2
77822;SDS011;67013;49.730;17.292;2023-05-29T00:00:24;1.40;;;0.60;;
77822;SDS011;67013;49.730;17.292;2023-05-29T00:02:54;1.60;;;0.70;;
77822;SDS011;67013;49.730;17.292;2023-05-29T00:05:23;1.20;;;0.50;;
77822;SDS011;67013;49.730;17.292;2023-05-29T00:07:52;1.30;;;0.50;;
77822;SDS011;67013;49.730;17.292;2023-05-29T00:10:22;1.00;;;0.60;;
77822;SDS011;67013;49.730;17.292;2023-05-29T00:12:51;1.30;;;0.60;;
77822;SDS011;67013;49.730;17.292;2023-05-29T00:15:22;1.00;;;0.60;;
77822;SDS011;67013;49.730;17.292;2023-05-29T00:17:52;1.00;;;0.60;;
77822;SDS011;67013;49.730;17.292;2023-05-29T00:20:22;0.90;;;0.60;;
77822;SDS011;67013;49.730;17.292;2023-05-29T00:22:52;1.50;;;0.80;;
77822;SDS011;67013;49.730;17.292;2023-05-29T00:25:21;1.10;;;0.80;;
77822;SDS011;67013;49.730;17.292;2023-05-29T00:27:51;1.10;;;0.60;;
77822;SDS011;67013;49.730;17.292;2023-05-29T00:30:21;1.20;;;0.70;;
77822;SDS011;67013;49.730;17.292;2023-05-29T00:32:50;1.00;;;0.70;;
77822;SDS011;67013;49.730;17.292;2023-05-29T00:35:20;1.10;;;0.80;;
77822;SDS011;67013;49.730;17.292;2023-05-29T00:37:50;1.50;;;0.70;;
77822;SDS011;67013;49.730;17.292;2023-05-29T00:40:19;1.20;;;0.60;;
77822;SDS011;67013;49.730;17.292;2023-05-29T00:42:49;1.10;;;0.60;;
77822;SDS011;67013;49.730;17.292;2023-05-29T00:45:19;1.20;;;0.70;;
77822;SDS011;67013;49.730;17.292;2023-05-29T00:47:48;1.00;;;0.60;;
77822;SDS011;67013;49.730;17.292;2023-05-29T00:50:19;1.90;;;0.80;;
77822;SDS011;67013;49.730;17.292;2023-05-29T00:52:51;1.00;;;0.60;;
77822;SDS011;67013;49.730;17.292;2023-05-29T00:55:21;1.30;;;0.80;;
77822;SDS011;67013;49.730;17.292;2023-05-29T00:57:51;1.20;;;0.60;;
77822;SDS011;67013;49.730;17.292;2023-05-29T01:00:21;1.20;;;0.70;;
77822;SDS011;67013;49.730;17.292;2023-05-29T01:02:52;1.30;;;0.70;;
77822;SDS011;67013;49.730;17.292;2023-05-29T01:05:22;1.60;;;0.80;;
77822;SDS011;67013;49.730;17.292;2023-05-29T01:07:53;0.90;;;0.70;;
77822;SDS011;67013;49.730;17.292;2023-05-29T01:10:23;1.10;;;0.70;;
77822;SDS011;67013;49.730;17.292;2023-05-29T01:12:57;2.00;;;0.80;;
77822;SDS011;67013;49.730;17.292;2023-05-29T01:15:41;1.20;;;0.60;;
77822;SDS011;67013;49.730;17.292;2023-05-29T01:18:29;1.60;;;0.70;;
77822;SDS011;67013;49.730;17.292;2023-05-29T01:21:08;0.90;;;0.60;;
77822;SDS011;67013;49.730;17.292;2023-05-29T01:23:52;2.50;;;0.80;;
77822;SDS011;67013;49.730;17.292;2023-05-29T01:26:43;1.80;;;0.90;;
77822;SDS011;67013;49.730;17.292;2023-05-29T01:29:19;1.20;;;0.70;;
77822;SDS011;67013;49.730;17.292;2023-05-29T01:31:53;1.50;;;0.70;;
77822;SDS011;67013;49.730;17.292;2023-05-29T01:34:23;1.70;;;0.70;;
77822;SDS011;67013;49.730;17.292;2023-05-29T01:36:53;1.40;;;0.70;;
77822;SDS011;67013;49.730;17.292;2023-05-29T01:39:22;1.20;;;0.60;;
77822;SDS011;67013;49.730;17.292;2023-05-29T01:41:53;1.10;;;0.70;;
77822;SDS011;67013;49.730;17.292;2023-05-29T01:44:24;1.10;;;0.70;;
77822;SDS011;67013;49.730;17.292;2023-05-29T01:46:55;1.40;;;0.70;;
77822;SDS011;67013;49.730;17.292;2023-05-29T01:49:25;1.60;;;0.80;;
77822;SDS011;67013;49.730;17.292;2023-05-29T01:51:56;1.50;;;0.70;;
77822;SDS011;67013;49.730;17.292;2023-05-29T01:54:26;1.60;;;0.80;;
77822;SDS011;67013;49.730;17.292;2023-05-29T01:56:55;1.20;;;0.80;;
77822;SDS011;67013;49.730;17.292;2023-05-29T01:59:25;1.80;;;0.80;;
77822;SDS011;67013;49.730;17.292;2023-05-29T02:01:55;1.00;;;0.80;;
77822;SDS011;67013;49.730;17.292;2023-05-29T02:04:24;1.40;;;0.80;;
77822;SDS011;67013;49.730;17.292;2023-05-29T02:06:54;1.60;;;0.80;;
77822;SDS011;67013;49.730;17.292;2023-05-29T02:09:24;1.50;;;0.80;;
77822;SDS011;67013;49.730;17.292;2023-05-29T02:11:54;1.00;;;0.60;;
77822;SDS011;67013;49.730;17.292;2023-05-29T02:14:24;1.40;;;0.70;;
77822;SDS011;67013;49.730;17.292;2023-05-29T02:16:53;1.50;;;0.90;;
77822;SDS011;67013;49.730;17.292;2023-05-29T02:19:23;1.70;;;0.80;;
77822;SDS011;67013;49.730;17.292;2023-05-29T02:21:53;1.80;;;0.90;;
77822;SDS011;67013;49.730;17.292;2023-05-29T02:24:23;0.70;;;0.60;;
77822;SDS011;67013;49.730;17.292;2023-05-29T02:26:52;1.40;;;0.70;;
77822;SDS011;67013;49.730;17.292;2023-05-29T02:29:22;3.00;;;0.80;;
77822;SDS011;67013;49.730;17.292;2023-05-29T02:31:51;1.50;;;0.80;;
77822;SDS011;67013;49.730;17.292;2023-05-29T02:34:21;0.90;;;0.50;;
77822;SDS011;67013;49.730;17.292;2023-05-29T02:36:51;1.20;;;0.60;;
77822;SDS011;67013;49.730;17.292;2023-05-29T02:39:21;0.80;;;0.70;;
77822;SDS011;67013;49.730;17.292;2023-05-29T02:41:50;1.90;;;0.90;;
77822;SDS011;67013;49.730;17.292;2023-05-29T02:44:20;1.70;;;0.90;;
77822;SDS011;67013;49.730;17.292;2023-05-29T02:46:50;1.40;;;0.70;;
77822;SDS011;67013;49.730;17.292;2023-05-29T02:49:19;1.60;;;0.70;;
77822;SDS011;67013;49.730;17.292;2023-05-29T02:51:49;1.30;;;0.70;;
77822;SDS011;67013;49.730;17.292;2023-05-29T02:54:23;1.50;;;0.80;;
77822;SDS011;67013;49.730;17.292;2023-05-29T02:56:53;1.50;;;0.70;;
77822;SDS011;67013;49.730;17.292;2023-05-29T02:59:23;1.40;;;0.60;;
77822;SDS011;67013;49.730;17.292;2023-05-29T03:01:52;1.10;;;0.60;;
77822;SDS011;67013;49.730;17.292;2023-05-29T03:04:22;1.00;;;0.70;;
77822;SDS011;67013;49.730;17.292;2023-05-29T03:06:51;1.20;;;0.70;;
77822;SDS011;67013;49.730;17.292;2023-05-29T03:09:22;1.40;;;0.60;;
77822;SDS011;67013;49.730;17.292;2023-05-29T03:11:51;1.20;;;0.70;;
77822;SDS011;67013;49.730;17.292;2023-05-29T03:14:21;1.20;;;0.70;;
77822;SDS011;67013;49.730;17.292;2023-05-29T03:16:50;1.40;;;0.80;;
77822;SDS011;67013;49.730;17.292;2023-05-29T03:19:20;1.30;;;0.70;;
77822;SDS011;67013;49.730;17.292;2023-05-29T03:21:49;1.40;;;0.80;;
77822;SDS011;67013;49.730;17.292;2023-05-29T03:24:19;1.10;;;0.60;;
77822;SDS011;67013;49.730;17.292;2023-05-29T03:26:50;1.30;;;0.70;;
77822;SDS011;67013;49.730;17.292;2023-05-29T03:29:19;1.30;;;0.70;;
77822;SDS011;67013;49.730;17.292;2023-05-29T03:31:49;1.20;;;0.80;;
77822;SDS011;67013;49.730;17.292;2023-05-29T03:34:19;1.60;;;0.80;;
77822;SDS011;67013;49.730;17.292;2023-05-29T03:36:48;1.50;;;0.80;;
77822;SDS011;67013;49.730;17.292;2023-05-29T03:39:17;2.00;;;0.90;;
77822;SDS011;67013;49.730;17.292;2023-05-29T03:41:47;1.40;;;0.80;;
77822;SDS011;67013;49.730;17.292;2023-05-29T03:44:16;1.00;;;0.60;;
77822;SDS011;67013;49.730;17.292;2023-05-29T03:46:47;1.30;;;0.70;;
77822;SDS011;67013;49.730;17.292;2023-05-29T03:49:17;1.40;;;0.60;;
77822;SDS011;67013;49.730;17.292;2023-05-29T03:51:46;1.40;;;0.90;;
77822;SDS011;67013;49.730;17.292;2023-05-29T03:54:16;1.10;;;0.70;;
77822;SDS011;67013;49.730;17.292;2023-05-29T03:56:46;1.70;;;0.80;;
77822;SDS011;67013;49.730;17.292;2023-05-29T03:59:15;1.30;;;0.70;;
77822;SDS011;67013;49.730;17.292;2023-05-29T04:01:45;1.20;;;0.70;;
77822;SDS011;67013;49.730;17.292;2023-05-29T04:04:14;1.40;;;0.80;;
77822;SDS011;67013;49.730;17.292;2023-05-29T04:06:47;1.60;;;0.70;;
77822;SDS011;67013;49.730;17.292;2023-05-29T04:09:16;1.40;;;0.80;;
77822;SDS011;67013;49.730;17.292;2023-05-29T04:11:46;1.30;;;0.80;;
77822;SDS011;67013;49.730;17.292;2023-05-29T04:14:15;1.20;;;0.80;;
77822;SDS011;67013;49.730;17.292;2023-05-29T04:16:45;0.90;;;0.70;;
77822;SDS011;67013;49.730;17.292;2023-05-29T04:19:14;1.30;;;0.70;;
77822;SDS011;67013;49.730;17.292;2023-05-29T04:21:43;1.70;;;1.00;;
77822;SDS011;67013;49.730;17.292;2023-05-29T04:24:14;2.30;;;0.80;;
77822;SDS011;67013;49.730;17.292;2023-05-29T04:26:43;1.10;;;0.70;;
77822;SDS011;67013;49.730;17.292;2023-05-29T04:29:13;1.30;;;0.70;;
77822;SDS011;67013;49.730;17.292;2023-05-29T04:31:43;1.00;;;0.60;;
77822;SDS011;67013;49.730;17.292;2023-05-29T04:34:13;0.80;;;0.60;;
77822;SDS011;67013;49.730;17.292;2023-05-29T04:36:44;1.70;;;0.80;;
77822;SDS011;67013;49.730;17.292;2023-05-29T04:39:13;1.30;;;0.70;;
77822;SDS011;67013;49.730;17.292;2023-05-29T04:41:43;2.70;;;0.80;;
77822;SDS011;67013;49.730;17.292;2023-05-29T04:44:12;0.80;;;0.60;;
77822;SDS011;67013;49.730;17.292;2023-05-29T04:46:41;0.90;;;0.60;;
77822;SDS011;67013;49.730;17.292;2023-05-29T04:49:11;1.30;;;0.70;;
77822;SDS011;67013;49.730;17.292;2023-05-29T04:51:41;0.80;;;0.60;;
77822;SDS011;67013;49.730;17.292;2023-05-29T04:54:11;1.50;;;0.70;;
77822;SDS011;67013;49.730;17.292;2023-05-29T04:56:43;1.10;;;0.50;;
77822;SDS011;67013;49.730;17.292;2023-05-29T04:59:12;0.80;;;0.50;;
77822;SDS011;67013;49.730;17.292;2023-05-29T05:01:42;0.90;;;0.50;;
77822;SDS011;67013;49.730;17.292;2023-05-29T05:04:14;1.00;;;0.40;;
77822;SDS011;67013;49.730;17.292;2023-05-29T05:06:43;1.40;;;0.60;;
77822;SDS011;67013;49.730;17.292;2023-05-29T05:09:12;0.70;;;0.50;;
77822;SDS011;67013;49.730;17.292;2023-05-29T05:11:42;1.10;;;0.50;;
77822;SDS011;67013;49.730;17.292;2023-05-29T05:14:11;1.00;;;0.60;;
77822;SDS011;67013;49.730;17.292;2023-05-29T05:16:41;1.50;;;0.60;;
77822;SDS011;67013;49.730;17.292;2023-05-29T05:19:11;0.70;;;0.50;;
77822;SDS011;67013;49.730;17.292;2023-05-29T05:21:40;0.80;;;0.50;;
77822;SDS011;67013;49.730;17.292;2023-05-29T05:24:10;1.30;;;0.50;;
77822;SDS011;67013;49.730;17.292;2023-05-29T05:26:39;0.80;;;0.50;;
77822;SDS011;67013;49.730;17.292;2023-05-29T05:29:08;0.40;;;0.40;;
77822;SDS011;67013;49.730;17.292;2023-05-29T05:31:38;0.90;;;0.40;;
77822;SDS011;67013;49.730;17.292;2023-05-29T05:34:08;0.50;;;0.40;;
77822;SDS011;67013;49.730;17.292;2023-05-29T05:36:37;1.10;;;0.50;;
77822;SDS011;67013;49.730;17.292;2023-05-29T05:39:07;1.40;;;0.50;;
77822;SDS011;67013;49.730;17.292;2023-05-29T05:41:37;1.70;;;0.50;;
77822;SDS011;67013;49.730;17.292;2023-05-29T05:44:06;1.10;;;0.50;;
77822;SDS011;67013;49.730;17.292;2023-05-29T05:46:36;1.90;;;0.70;;
77822;SDS011;67013;49.730;17.292;2023-05-29T05:49:05;0.90;;;0.30;;
77822;SDS011;67013;49.730;17.292;2023-05-29T05:51:35;1.50;;;0.60;;
77822;SDS011;67013;49.730;17.292;2023-05-29T05:54:04;1.50;;;0.40;;
77822;SDS011;67013;49.730;17.292;2023-05-29T05:56:34;0.60;;;0.50;;
77822;SDS011;67013;49.730;17.292;2023-05-29T05:59:03;0.60;;;0.40;;
77822;SDS011;67013;49.730;17.292;2023-05-29T06:01:33;1.00;;;0.50;;
77822;SDS011;67013;49.730;17.292;2023-05-29T06:04:03;1.10;;;0.40;;
77822;SDS011;67013;49.730;17.292;2023-05-29T06:06:32;1.00;;;0.50;;
77822;SDS011;67013;49.730;17.292;2023-05-29T06:09:02;1.30;;;0.60;;
77822;SDS011;67013;49.730;17.292;2023-05-29T06:11:32;0.70;;;0.40;;
77822;SDS011;67013;49.730;17.292;2023-05-29T06:14:02;0.70;;;0.40;;
77822;SDS011;67013;49.730;17.292;2023-05-29T06:16:32;1.50;;;0.60;;
77822;SDS011;67013;49.730;17.292;2023-05-29T06:19:02;1.00;;;0.40;;
77822;SDS011;67013;49.730;17.292;2023-05-29T06:21:32;0.30;;;0.20;;
77822;SDS011;67013;49.730;17.292;2023-05-29T06:26:29;1.30;;;0.40;;
77822;SDS011;67013;49.730;17.292;2023-05-29T06:28:59;0.70;;;0.40;;
77822;SDS011;67013;49.730;17.292;2023-05-29T06:31:28;0.80;;;0.50;;
77822;SDS011;67013;49.730;17.292;2023-05-29T06:33:58;0.70;;;0.30;;
77822;SDS011;67013;49.730;17.292;2023-05-29T06:36:28;0.80;;;0.40;;
77822;SDS011;67013;49.730;17.292;2023-05-29T06:38:59;1.20;;;0.40;;
77822;SDS011;67013;49.730;17.292;2023-05-29T06:41:28;1.60;;;0.40;;
77822;SDS011;67013;49.730;17.292;2023-05-29T06:43:57;0.90;;;0.50;;
77822;SDS011;67013;49.730;17.292;2023-05-29T06:46:27;0.30;;;0.30;;
77822;SDS011;67013;49.730;17.292;2023-05-29T06:48:57;1.00;;;0.30;;
77822;SDS011;67013;49.730;17.292;2023-05-29T06:51:26;1.00;;;0.40;;
77822;SDS011;67013;49.730;17.292;2023-05-29T06:53:56;1.10;;;0.50;;
77822;SDS011;67013;49.730;17.292;2023-05-29T06:56:25;0.60;;;0.30;;
77822;SDS011;67013;49.730;17.292;2023-05-29T06:58:56;2.00;;;0.40;;
77822;SDS011;67013;49.730;17.292;2023-05-29T07:01:26;0.40;;;0.10;;
77822;SDS011;67013;49.730;17.292;2023-05-29T07:03:55;0.30;;;0.30;;
77822;SDS011;67013;49.730;17.292;2023-05-29T07:06:25;1.50;;;0.50;;
77822;SDS011;67013;49.730;17.292;2023-05-29T07:08:54;0.70;;;0.20;;
77822;SDS011;67013;49.730;17.292;2023-05-29T07:11:24;0.30;;;0.20;;
77822;SDS011;67013;49.730;17.292;2023-05-29T07:13:54;0.30;;;0.10;;
77822;SDS011;67013;49.730;17.292;2023-05-29T07:16:23;0.40;;;0.30;;
77822;SDS011;67013;49.730;17.292;2023-05-29T07:18:53;0.30;;;0.20;;
77822;SDS011;67013;49.730;17.292;2023-05-29T07:21:22;1.20;;;0.40;;
77822;SDS011;67013;49.730;17.292;2023-05-29T07:23:52;1.60;;;0.40;;
77822;SDS011;67013;49.730;17.292;2023-05-29T07:26:21;0.70;;;0.30;;
77822;SDS011;67013;49.730;17.292;2023-05-29T07:28:51;0.30;;;0.30;;
77822;SDS011;67013;49.730;17.292;2023-05-29T07:31:21;0.40;;;0.40;;
77822;SDS011;67013;49.730;17.292;2023-05-29T07:33:52;0.80;;;0.40;;
77822;SDS011;67013;49.730;17.292;2023-05-29T07:36:21;1.00;;;0.50;;
77822;SDS011;67013;49.730;17.292;2023-05-29T07:38:51;1.80;;;0.40;;
77822;SDS011;67013;49.730;17.292;2023-05-29T07:41:24;0.40;;;0.40;;
77822;SDS011;67013;49.730;17.292;2023-05-29T07:43:54;0.60;;;0.30;;
77822;SDS011;67013;49.730;17.292;2023-05-29T07:46:23;0.90;;;0.40;;
77822;SDS011;67013;49.730;17.292;2023-05-29T07:48:53;1.60;;;0.70;;
77822;SDS011;67013;49.730;17.292;2023-05-29T07:51:22;0.50;;;0.30;;
77822;SDS011;67013;49.730;17.292;2023-05-29T07:53:52;0.70;;;0.40;;
77822;SDS011;67013;49.730;17.292;2023-05-29T07:56:21;0.40;;;0.30;;
77822;SDS011;67013;49.730;17.292;2023-05-29T07:58:52;0.80;;;0.40;;
77822;SDS011;67013;49.730;17.292;2023-05-29T08:01:23;0.50;;;0.40;;
77822;SDS011;67013;49.730;17.292;2023-05-29T08:03:53;0.80;;;0.50;;
77822;SDS011;67013;49.730;17.292;2023-05-29T08:06:23;1.00;;;0.60;;
77822;SDS011;67013;49.730;17.292;2023-05-29T08:08:53;0.80;;;0.50;;
77822;SDS011;67013;49.730;17.292;2023-05-29T08:11:22;1.40;;;0.50;;
77822;SDS011;67013;49.730;17.292;2023-05-29T08:13:52;1.00;;;0.50;;
77822;SDS011;67013;49.730;17.292;2023-05-29T08:16:21;0.90;;;0.60;;
77822;SDS011;67013;49.730;17.292;2023-05-29T08:18:51;0.90;;;0.40;;
77822;SDS011;67013;49.730;17.292;2023-05-29T08:21:21;1.00;;;0.60;;
77822;SDS011;67013;49.730;17.292;2023-05-29T08:26:20;0.40;;;0.40;;
77822;SDS011;67013;49.730;17.292;2023-05-29T08:28:49;0.60;;;0.40;;
77822;SDS011;67013;49.730;17.292;2023-05-29T08:31:18;0.60;;;0.50;;
77822;SDS011;67013;49.730;17.292;2023-05-29T08:33:50;0.70;;;0.40;;
77822;SDS011;67013;49.730;17.292;2023-05-29T08:36:20;1.00;;;0.50;;
77822;SDS011;67013;49.730;17.292;2023-05-29T08:38:50;1.20;;;0.50;;
77822;SDS011;67013;49.730;17.292;2023-05-29T08:41:21;1.50;;;0.40;;
77822;SDS011;67013;49.730;17.292;2023-05-29T08:43:56;1.90;;;0.80;;
77822;SDS011;67013;49.730;17.292;2023-05-29T08:46:30;1.20;;;0.60;;
77822;SDS011;67013;49.730;17.292;2023-05-29T08:51:31;1.90;;;0.80;;
77822;SDS011;67013;49.730;17.292;2023-05-29T08:54:04;0.50;;;0.40;;
77822;SDS011;67013;49.730;17.292;2023-05-29T08:56:34;1.20;;;0.60;;
77822;SDS011;67013;49.730;17.292;2023-05-29T08:59:04;0.80;;;0.60;;
77822;SDS011;67013;49.730;17.292;2023-05-29T09:01:36;0.60;;;0.40;;
77822;SDS011;67013;49.730;17.292;2023-05-29T09:04:07;1.10;;;0.40;;
77822;SDS011;67013;49.730;17.292;2023-05-29T09:06:37;0.90;;;0.40;;
77822;SDS011;67013;49.730;17.292;2023-05-29T09:09:07;0.80;;;0.40;;
77822;SDS011;67013;49.730;17.292;2023-05-29T09:11:37;1.00;;;0.50;;
77822;SDS011;67013;49.730;17.292;2023-05-29T09:14:12;1.60;;;0.50;;
77822;SDS011;67013;49.730;17.292;2023-05-29T09:17:04;0.70;;;0.50;;
77822;SDS011;67013;49.730;17.292;2023-05-29T09:19:35;0.70;;;0.40;;
77822;SDS011;67013;49.730;17.292;2023-05-29T09:22:07;1.10;;;0.50;;
77822;SDS011;67013;49.730;17.292;2023-05-29T09:24:40;0.60;;;0.50;;
77822;SDS011;67013;49.730;17.292;2023-05-29T09:27:11;0.80;;;0.50;;
77822;SDS011;67013;49.730;17.292;2023-05-29T09:29:41;0.60;;;0.50;;
77822;SDS011;67013;49.730;17.292;2023-05-29T09:32:14;1.10;;;0.50;;
77822;SDS011;67013;49.730;17.292;2023-05-29T09:34:45;0.50;;;0.40;;
77822;SDS011;67013;49.730;17.292;2023-05-29T09:37:14;0.60;;;0.40;;
77822;SDS011;67013;49.730;17.292;2023-05-29T09:39:48;1.00;;;0.60;;
77822;SDS011;67013;49.730;17.292;2023-05-29T09:42:19;0.60;;;0.40;;
77822;SDS011;67013;49.730;17.292;2023-05-29T09:44:49;1.10;;;0.50;;
77822;SDS011;67013;49.730;17.292;2023-05-29T09:47:19;0.40;;;0.40;;
77822;SDS011;67013;49.730;17.292;2023-05-29T09:49:49;1.10;;;0.60;;
77822;SDS011;67013;49.730;17.292;2023-05-29T09:52:21;0.70;;;0.40;;
77822;SDS011;67013;49.730;17.292;2023-05-29T09:54:51;1.20;;;0.60;;
77822;SDS011;67013;49.730;17.292;2023-05-29T09:57:23;1.70;;;0.70;;
77822;SDS011;67013;49.730;17.292;2023-05-29T09:59:55;1.10;;;0.60;;
77822;SDS011;67013;49.730;17.292;2023-05-29T10:02:25;0.90;;;0.50;;
77822;SDS011;67013;49.730;17.292;2023-05-29T10:04:55;0.40;;;0.40;;
77822;SDS011;67013;49.730;17.292;2023-05-29T10:07:26;1.80;;;0.70;;
77822;SDS011;67013;49.730;17.292;2023-05-29T10:10:00;0.30;;;0.30;;
77822;SDS011;67013;49.730;17.292;2023-05-29T10:12:32;1.40;;;0.60;;
77822;SDS011;67013;49.730;17.292;2023-05-29T10:15:06;0.90;;;0.50;;
77822;SDS011;67013;49.730;17.292;2023-05-29T10:17:39;0.90;;;0.50;;
77822;SDS011;67013;49.730;17.292;2023-05-29T10:20:17;0.60;;;0.40;;
77822;SDS011;67013;49.730;17.292;2023-05-29T10:22:49;0.80;;;0.50;;
77822;SDS011;67013;49.730;17.292;2023-05-29T10:25:21;1.30;;;0.50;;
77822;SDS011;67013;49.730;17.292;2023-05-29T10:27:53;1.00;;;0.50;;
77822;SDS011;67013;49.730;17.292;2023-05-29T10:30:27;1.10;;;0.50;;
77822;SDS011;67013;49.730;17.292;2023-05-29T10:35:40;0.40;;;0.40;;
77822;SDS011;67013;49.730;17.292;2023-05-29T10:38:15;0.80;;;0.50;;
77822;SDS011;67013;49.730;17.292;2023-05-29T10:40:47;0.60;;;0.40;;
77822;SDS011;67013;49.730;17.292;2023-05-29T10:43:32;0.40;;;0.40;;
77822;SDS011;67013;49.730;17.292;2023-05-29T10:46:04;0.80;;;0.40;;
77822;SDS011;67013;49.730;17.292;2023-05-29T10:48:43;0.80;;;0.50;;
77822;SDS011;67013;49.730;17.292;2023-05-29T10:51:25;0.70;;;0.50;;
77822;SDS011;67013;49.730;17.292;2023-05-29T10:53:59;0.90;;;0.50;;
77822;SDS011;67013;49.730;17.292;2023-05-29T10:56:29;0.70;;;0.50;;
77822;SDS011;67013;49.730;17.292;2023-05-29T10:58:59;1.20;;;0.50;;
77822;SDS011;67013;49.730;17.292;2023-05-29T11:01:29;0.60;;;0.50;;
77822;SDS011;67013;49.730;17.292;2023-05-29T11:06:57;1.00;;;0.70;;
77822;SDS011;67013;49.730;17.292;2023-05-29T11:09:27;0.90;;;0.50;;
77822;SDS011;67013;49.730;17.292;2023-05-29T11:12:11;1.10;;;0.50;;
77822;SDS011;67013;49.730;17.292;2023-05-29T11:15:02;0.70;;;0.40;;
77822;SDS011;67013;49.730;17.292;2023-05-29T11:17:42;1.60;;;0.50;;
77822;SDS011;67013;49.730;17.292;2023-05-29T11:20:20;0.70;;;0.50;;
77822;SDS011;67013;49.730;17.292;2023-05-29T11:23:03;0.60;;;0.50;;
77822;SDS011;67013;49.730;17.292;2023-05-29T11:25:35;0.90;;;0.40;;
77822;SDS011;67013;49.730;17.292;2023-05-29T11:28:05;0.80;;;0.40;;
77822;SDS011;67013;49.730;17.292;2023-05-29T11:30:46;1.30;;;0.60;;
77822;SDS011;67013;49.730;17.292;2023-05-29T11:33:22;0.40;;;0.30;;
77822;SDS011;67013;49.730;17.292;2023-05-29T11:35:56;0.60;;;0.50;;
77822;SDS011;67013;49.730;17.292;2023-05-29T11:38:28;1.30;;;0.60;;
77822;SDS011;67013;49.730;17.292;2023-05-29T11:40:58;0.70;;;0.50;;
77822;SDS011;67013;49.730;17.292;2023-05-29T11:43:31;1.00;;;0.50;;
77822;SDS011;67013;49.730;17.292;2023-05-29T11:46:00;1.20;;;0.60;;
77822;SDS011;67013;49.730;17.292;2023-05-29T11:48:30;0.90;;;0.50;;
77822;SDS011;67013;49.730;17.292;2023-05-29T11:51:12;1.30;;;0.60;;
77822;SDS011;67013;49.730;17.292;2023-05-29T11:53:42;0.60;;;0.40;;
77822;SDS011;67013;49.730;17.292;2023-05-29T11:56:14;0.80;;;0.50;;
77822;SDS011;67013;49.730;17.292;2023-05-29T11:58:43;1.10;;;0.50;;
77822;SDS011;67013;49.730;17.292;2023-05-29T12:01:16;0.90;;;0.50;;
77822;SDS011;67013;49.730;17.292;2023-05-29T12:03:47;0.80;;;0.50;;
77822;SDS011;67013;49.730;17.292;2023-05-29T12:06:17;1.10;;;0.60;;
77822;SDS011;67013;49.730;17.292;2023-05-29T12:09:01;1.30;;;0.70;;
77822;SDS011;67013;49.730;17.292;2023-05-29T12:11:32;0.80;;;0.50;;
77822;SDS011;67013;49.730;17.292;2023-05-29T12:14:02;0.90;;;0.50;;
77822;SDS011;67013;49.730;17.292;2023-05-29T12:16:32;0.40;;;0.30;;
77822;SDS011;67013;49.730;17.292;2023-05-29T12:19:03;0.90;;;0.50;;
77822;SDS011;67013;49.730;17.292;2023-05-29T12:21:33;1.60;;;0.80;;
77822;SDS011;67013;49.730;17.292;2023-05-29T12:24:03;1.00;;;0.60;;
77822;SDS011;67013;49.730;17.292;2023-05-29T12:26:34;1.10;;;0.60;;
77822;SDS011;67013;49.730;17.292;2023-05-29T12:29:04;1.60;;;0.70;;
77822;SDS011;67013;49.730;17.292;2023-05-29T12:31:34;1.10;;;0.70;;
77822;SDS011;67013;49.730;17.292;2023-05-29T12:34:08;0.80;;;0.50;;
77822;SDS011;67013;49.730;17.292;2023-05-29T12:36:41;0.70;;;0.50;;
77822;SDS011;67013;49.730;17.292;2023-05-29T12:39:10;1.70;;;0.60;;
77822;SDS011;67013;49.730;17.292;2023-05-29T12:41:40;0.70;;;0.60;;
77822;SDS011;67013;49.730;17.292;2023-05-29T12:44:10;1.00;;;0.60;;
77822;SDS011;67013;49.730;17.292;2023-05-29T12:46:40;1.10;;;0.70;;
77822;SDS011;67013;49.730;17.292;2023-05-29T12:49:13;0.70;;;0.60;;
77822;SDS011;67013;49.730;17.292;2023-05-29T12:51:47;1.80;;;0.70;;
77822;SDS011;67013;49.730;17.292;2023-05-29T12:54:19;0.70;;;0.50;;
77822;SDS011;67013;49.730;17.292;2023-05-29T12:56:49;1.30;;;0.60;;
77822;SDS011;67013;49.730;17.292;2023-05-29T12:59:18;0.80;;;0.60;;
77822;SDS011;67013;49.730;17.292;2023-05-29T13:01:48;1.80;;;0.70;;
77822;SDS011;67013;49.730;17.292;2023-05-29T13:04:18;1.10;;;0.60;;
77822;SDS011;67013;49.730;17.292;2023-05-29T13:06:48;0.50;;;0.40;;
77822;SDS011;67013;49.730;17.292;2023-05-29T13:09:18;1.70;;;0.70;;
77822;SDS011;67013;49.730;17.292;2023-05-29T13:11:47;0.90;;;0.60;;
77822;SDS011;67013;49.730;17.292;2023-05-29T13:14:17;0.80;;;0.60;;
77822;SDS011;67013;49.730;17.292;2023-05-29T13:16:46;1.90;;;0.80;;
77822;SDS011;67013;49.730;17.292;2023-05-29T13:19:16;1.40;;;0.70;;
77822;SDS011;67013;49.730;17.292;2023-05-29T13:21:45;0.80;;;0.60;;
77822;SDS011;67013;49.730;17.292;2023-05-29T13:24:16;0.90;;;0.50;;
77822;SDS011;67013;49.730;17.292;2023-05-29T13:26:46;1.00;;;0.50;;
77822;SDS011;67013;49.730;17.292;2023-05-29T13:29:18;0.60;;;0.50;;
77822;SDS011;67013;49.730;17.292;2023-05-29T13:31:48;0.90;;;0.50;;
77822;SDS011;67013;49.730;17.292;2023-05-29T13:34:18;1.20;;;0.50;;
77822;SDS011;67013;49.730;17.292;2023-05-29T13:36:50;1.00;;;0.60;;
77822;SDS011;67013;49.730;17.292;2023-05-29T13:39:19;1.40;;;0.60;;
77822;SDS011;67013;49.730;17.292;2023-05-29T13:41:49;0.80;;;0.60;;
77822;SDS011;67013;49.730;17.292;2023-05-29T13:46:47;1.10;;;0.50;;
77822;SDS011;67013;49.730;17.292;2023-05-29T13:49:18;1.20;;;0.60;;
77822;SDS011;67013;49.730;17.292;2023-05-29T13:51:48;0.90;;;0.50;;
77822;SDS011;67013;49.730;17.292;2023-05-29T13:54:18;0.90;;;0.50;;
77822;SDS011;67013;49.730;17.292;2023-05-29T13:56:48;1.20;;;0.60;;
77822;SDS011;67013;49.730;17.292;2023-05-29T13:59:18;1.00;;;0.60;;
77822;SDS011;67013;49.730;17.292;2023-05-29T14:01:47;0.60;;;0.50;;
77822;SDS011;67013;49.730;17.292;2023-05-29T14:04:16;1.40;;;0.50;;
77822;SDS011;67013;49.730;17.292;2023-05-29T14:06:46;0.80;;;0.50;;
77822;SDS011;67013;49.730;17.292;2023-05-29T14:09:16;1.00;;;0.50;;
77822;SDS011;67013;49.730;17.292;2023-05-29T14:11:53;1.20;;;0.50;;
77822;SDS011;67013;49.730;17.292;2023-05-29T14:14:23;1.10;;;0.50;;
77822;SDS011;67013;49.730;17.292;2023-05-29T14:16:53;1.20;;;0.60;;
77822;SDS011;67013;49.730;17.292;2023-05-29T14:19:23;0.70;;;0.60;;
77822;SDS011;67013;49.730;17.292;2023-05-29T14:21:52;1.50;;;0.70;;
77822;SDS011;67013;49.730;17.292;2023-05-29T14:24:22;1.00;;;0.60;;
77822;SDS011;67013;49.730;17.292;2023-05-29T14:26:51;0.40;;;0.40;;
77822;SDS011;67013;49.730;17.292;2023-05-29T14:29:21;0.80;;;0.50;;
77822;SDS011;67013;49.730;17.292;2023-05-29T14:31:51;0.90;;;0.50;;
77822;SDS011;67013;49.730;17.292;2023-05-29T14:34:21;1.30;;;0.70;;
77822;SDS011;67013;49.730;17.292;2023-05-29T14:36:50;0.60;;;0.50;;
77822;SDS011;67013;49.730;17.292;2023-05-29T14:39:20;0.70;;;0.50;;
77822;SDS011;67013;49.730;17.292;2023-05-29T14:41:50;1.50;;;0.70;;
77822;SDS011;67013;49.730;17.292;2023-05-29T14:44:19;1.20;;;0.60;;
77822;SDS011;67013;49.730;17.292;2023-05-29T14:46:49;1.10;;;0.60;;
77822;SDS011;67013;49.730;17.292;2023-05-29T14:49:18;1.50;;;0.70;;
77822;SDS011;67013;49.730;17.292;2023-05-29T14:51:49;1.00;;;0.60;;
77822;SDS011;67013;49.730;17.292;2023-05-29T14:54:19;1.10;;;0.60;;
77822;SDS011;67013;49.730;17.292;2023-05-29T14:56:49;1.00;;;0.60;;
77822;SDS011;67013;49.730;17.292;2023-05-29T14:59:18;0.70;;;0.40;;
77822;SDS011;67013;49.730;17.292;2023-05-29T15:01:48;1.60;;;0.60;;
77822;SDS011;67013;49.730;17.292;2023-05-29T15:04:17;1.90;;;0.60;;
77822;SDS011;67013;49.730;17.292;2023-05-29T15:06:47;1.20;;;0.60;;
77822;SDS011;67013;49.730;17.292;2023-05-29T15:09:16;2.10;;;0.70;;